Time;durP1;ratioP1;P1;durP2;ratioP2;P2;SDS_P1;SDS_P2;PMS_P1;PMS_P2;Temp;Humidity;BMP_temperature;BMP_pressure;BME280_temperature;BME280_humidity;BME280_pressure;Samples;Min_cycle;Max_cycle;Signal;HPM_P1;HPM_P2
2023/07/18 00:01:20;;;;;;;6.77;4.70;;;;;;;16.31;79.18;101412.25;5030193;28;20199;-74
2023/07/18 00:03:47;;;;;;;8.30;4.50;;;;;;;16.29;78.60;101421.69;5016449;28;20803;-73
2023/07/18 00:06:17;;;;;;;7.33;4.40;;;;;;;16.29;78.17;101425.13;5029971;28;20275;-74
2023/07/18 00:08:46;;;;;;;6.07;3.97;;;;;;;16.30;78.29;101420.59;5035096;28;20661;-73
2023/07/18 00:11:16;;;;;;;6.13;4.10;;;;;;;16.28;78.29;101423.59;5027613;28;20212;-74
2023/07/18 00:13:43;;;;;;;6.37;3.80;;;;;;;16.28;78.45;101415.59;5029565;28;20228;-73
2023/07/18 00:16:09;;;;;;;5.93;3.70;;;;;;;16.25;78.34;101428.84;5014816;28;20207;-73
2023/07/18 00:18:41;;;;;;;8.83;3.80;;;;;;;16.25;78.53;101421.59;5027030;28;20226;-73
2023/07/18 00:21:08;;;;;;;7.20;3.80;;;;;;;16.22;78.88;101416.97;5029314;28;20207;-73
2023/07/18 00:23:35;;;;;;;5.17;3.57;;;;;;;16.15;77.98;101411.44;5030877;28;20203;-73
2023/07/18 00:26:09;;;;;;;6.17;3.87;;;;;;;16.12;78.43;101411.38;5029062;28;20199;-74
2023/07/18 00:28:39;;;;;;;5.33;3.07;;;;;;;16.09;78.54;101407.50;5011725;28;20198;-73
2023/07/18 00:31:10;;;;;;;6.37;4.10;;;;;;;16.08;78.79;101407.81;5030616;28;20284;-73
2023/07/18 00:33:37;;;;;;;5.00;3.47;;;;;;;16.03;78.56;101410.75;5045399;28;20266;-74
2023/07/18 00:36:06;;;;;;;4.87;3.40;;;;;;;16.03;79.02;101414.19;5027749;28;20204;-73
2023/07/18 00:38:32;;;;;;;6.10;3.30;;;;;;;15.98;79.18;101421.66;5017316;28;20219;-74
2023/07/18 00:40:59;;;;;;;6.27;3.70;;;;;;;16.16;77.95;101412.25;5013480;28;20207;-73
2023/07/18 00:43:25;;;;;;;5.43;3.70;;;;;;;16.15;77.66;101416.78;5027403;28;20287;-75
2023/07/18 00:45:53;;;;;;;6.50;3.57;;;;;;;16.14;77.52;101412.56;5031959;28;20212;-73
2023/07/18 00:48:20;;;;;;;5.97;3.60;;;;;;;16.07;77.04;101409.75;5017103;28;20231;-73
2023/07/18 00:50:48;;;;;;;4.57;3.30;;;;;;;16.06;77.61;101407.41;5017941;28;20194;-73
2023/07/18 00:53:17;;;;;;;5.03;3.53;;;;;;;16.00;77.17;101408.78;5033951;28;20250;-73
2023/07/18 00:55:47;;;;;;;6.13;3.70;;;;;;;15.95;77.59;101417.81;5016348;28;20263;-73
2023/07/18 00:58:14;;;;;;;6.83;3.97;;;;;;;15.89;76.65;101415.72;5016889;28;20208;-73
2023/07/18 01:00:42;;;;;;;4.03;3.60;;;;;;;15.82;77.21;101412.84;5016032;28;20253;-73
2023/07/18 01:03:12;;;;;;;5.17;3.67;;;;;;;15.74;77.35;101411.88;5017340;28;20293;-73
2023/07/18 01:05:45;;;;;;;6.73;3.33;;;;;;;15.73;77.99;101405.00;5028155;28;20202;-73
2023/07/18 01:08:15;;;;;;;4.40;3.40;;;;;;;15.67;77.55;101409.03;5032924;28;20201;-74
2023/07/18 01:10:44;;;;;;;6.97;3.70;;;;;;;15.61;77.97;101402.41;5028718;28;20205;-73
2023/07/18 01:13:13;;;;;;;5.40;3.80;;;;;;;15.59;78.28;101403.84;5015821;28;20213;-73
2023/07/18 01:15:41;;;;;;;4.47;3.67;;;;;;;15.53;78.18;101407.88;5026875;28;20221;-73
2023/07/18 01:18:09;;;;;;;4.70;3.50;;;;;;;15.49;78.31;101402.47;5028022;28;20238;-73
2023/07/18 01:20:44;;;;;;;5.07;3.67;;;;;;;15.51;79.12;101410.06;5032163;28;20239;-74
2023/07/18 01:23:12;;;;;;;4.87;3.87;;;;;;;15.47;79.07;101417.22;5028509;28;20666;-74
2023/07/18 01:25:49;;;;;;;5.47;3.50;;;;;;;15.45;79.33;101412.22;5017597;28;20263;-74
2023/07/18 01:28:16;;;;;;;5.00;3.63;;;;;;;15.42;79.24;101407.56;5029411;28;20634;-73
2023/07/18 01:30:43;;;;;;;4.73;3.47;;;;;;;15.42;79.49;101410.22;5015464;28;20218;-74
2023/07/18 01:33:10;;;;;;;4.63;3.30;;;;;;;15.40;79.74;101407.13;5029596;28;20225;-73
2023/07/18 01:35:39;;;;;;;9.57;3.60;;;;;;;15.38;79.51;101411.25;5033295;28;20217;-73
2023/07/18 01:38:06;;;;;;;6.43;3.90;;;;;;;15.36;79.26;101419.56;5029982;28;20216;-73
2023/07/18 01:40:34;;;;;;;5.90;3.60;;;;;;;15.32;79.70;101415.97;5018833;28;20220;-74
2023/07/18 01:43:03;;;;;;;3.97;3.53;;;;;;;15.31;79.36;101417.09;5017308;28;20216;-73
2023/07/18 01:45:30;;;;;;;5.57;3.50;;;;;;;15.29;79.82;101423.88;5015282;28;20273;-73
2023/07/18 01:48:03;;;;;;;4.93;3.63;;;;;;;15.24;79.58;101430.19;5043742;28;20562;-73
2023/07/18 01:50:30;;;;;;;5.40;3.67;;;;;;;15.20;79.54;101434.63;5044573;28;20278;-73
2023/07/18 01:53:03;;;;;;;7.77;3.80;;;;;;;15.17;79.51;101434.53;5045624;28;20196;-73
2023/07/18 01:55:30;;;;;;;5.17;3.83;;;;;;;15.10;79.15;101436.97;5048642;28;20232;-73
2023/07/18 01:58:03;;;;;;;5.57;3.77;;;;;;;15.04;79.06;101440.97;5043932;28;20210;-73
2023/07/18 02:00:30;;;;;;;4.17;3.73;;;;;;;15.04;79.51;101438.31;5017990;28;20297;-73
2023/07/18 02:03:05;;;;;;;5.03;3.77;;;;;;;15.03;79.72;101439.44;5037890;28;20211;-73
2023/07/18 02:05:33;;;;;;;7.67;3.83;;;;;;;15.03;80.41;101442.88;5031413;28;20241;-73
2023/07/18 02:08:01;;;;;;;6.60;3.93;;;;;;;15.06;80.42;101442.19;5016855;28;20684;-73
2023/07/18 02:10:28;;;;;;;6.33;4.30;;;;;;;15.08;80.65;101444.53;5023727;28;20212;-73
2023/07/18 02:12:57;;;;;;;7.57;4.47;;;;;;;15.08;81.23;101442.66;5052262;28;20270;-73
2023/07/18 02:15:25;;;;;;;6.60;4.20;;;;;;;15.05;80.79;101450.53;5030058;28;20257;-73
2023/07/18 02:17:52;;;;;;;5.03;3.77;;;;;;;15.06;81.06;101444.09;5024126;28;20766;-73
2023/07/18 02:20:18;;;;;;;5.00;3.50;;;;;;;15.08;81.09;101449.84;5018752;28;20551;-73
2023/07/18 02:22:48;;;;;;;9.70;4.00;;;;;;;15.05;80.80;101442.53;5021275;28;20211;-73
2023/07/18 02:25:17;;;;;;;5.23;3.77;;;;;;;15.01;80.48;101445.06;5033062;28;20311;-73
2023/07/18 02:27:44;;;;;;;7.60;3.93;;;;;;;15.03;81.11;101455.38;5020146;28;20211;-73
2023/07/18 02:30:15;;;;;;;6.93;4.43;;;;;;;15.06;81.74;101444.84;5019547;28;20200;-73
2023/07/18 02:32:43;;;;;;;4.97;3.77;;;;;;;15.03;81.30;101453.50;5020148;28;20211;-74
2023/07/18 02:35:19;;;;;;;5.53;4.10;;;;;;;14.97;80.90;101460.16;5033734;28;20227;-74
2023/07/18 02:37:48;;;;;;;5.60;3.70;;;;;;;15.00;80.56;101462.16;5035574;28;20443;-73
2023/07/18 02:40:17;;;;;;;4.97;4.00;;;;;;;15.00;80.93;101464.81;5033965;28;20663;-73
2023/07/18 02:42:45;;;;;;;4.77;3.50;;;;;;;14.97;80.99;101460.16;5034038;28;20207;-73
2023/07/18 02:45:22;;;;;;;4.87;4.00;;;;;;;14.96;80.84;101463.16;5021308;28;20228;-73
2023/07/18 02:47:56;;;;;;;7.23;4.00;;;;;;;14.93;81.09;101466.47;5021731;28;20214;-73
2023/07/18 02:50:32;;;;;;;;;;;;;;;;;;;;;
2023/07/18 02:53:13;;;;;;;6.87;3.63;;;;;;;14.89;80.96;101476.22;5041916;28;20216;-73
2023/07/18 02:56:07;;;;;;;4.83;3.70;;;;;;;14.87;80.99;101467.78;5017528;28;20212;-73
2023/07/18 02:59:01;;;;;;;6.30;3.53;;;;;;;14.78;80.40;101475.09;5047604;28;20288;-74
2023/07/18 03:01:36;;;;;;;4.17;3.53;;;;;;;14.71;80.01;101482.84;5017930;28;20199;-74
2023/07/18 03:04:22;;;;;;;4.00;3.47;;;;;;;14.66;80.13;101475.88;5034126;28;20214;-73
2023/07/18 03:07:08;;;;;;;7.63;3.70;;;;;;;14.64;80.78;101480.72;5035781;28;20271;-74
2023/07/18 03:09:45;;;;;;;5.33;3.50;;;;;;;14.65;81.15;101481.53;5032627;28;20193;-73
2023/07/18 03:12:30;;;;;;;7.90;3.87;;;;;;;14.66;81.05;101483.06;5023180;28;20694;-74
2023/07/18 03:20:59;;;;;;;4.33;3.37;;;;;;;14.61;81.53;101488.59;5030566;28;20203;-73
2023/07/18 03:23:45;;;;;;;6.37;3.53;;;;;;;14.49;80.31;101501.88;5021174;28;20250;-73
2023/07/18 03:26:27;;;;;;;4.13;3.20;;;;;;;14.50;80.52;101500.75;5020170;28;20249;-74
2023/07/18 03:29:11;;;;;;;9.43;3.67;;;;;;;14.50;80.98;101506.84;5035712;28;20195;-74
2023/07/18 03:32:09;;;;;;;6.57;3.80;;;;;;;14.41;80.19;101514.16;5029420;28;20208;-74
2023/07/18 03:41:24;;;;;;;5.47;3.30;;;;;;;14.39;81.04;101512.91;4944579;29;20653;-73
2023/07/18 03:44:00;;;;;;;3.67;3.33;;;;;;;14.41;81.22;101508.81;4988938;28;20228;-74
2023/07/18 03:46:44;;;;;;;4.43;3.37;;;;;;;14.38;80.66;101509.47;5035261;28;20201;-74
2023/07/18 03:52:14;;;;;;;4.73;3.73;;;;;;;14.36;79.90;101502.94;5045544;28;20218;-74
2023/07/18 03:58:32;;;;;;;6.37;3.60;;;;;;;14.34;80.27;101497.94;5018631;28;20291;-74
2023/07/18 04:01:26;;;;;;;;;;;;;;;;;;;;;
2023/07/18 04:04:14;;;;;;;3.73;3.30;;;;;;;14.38;80.92;101511.38;5030189;28;20228;-74
2023/07/18 04:07:05;;;;;;;5.10;3.63;;;;;;;14.39;80.55;101507.59;5018373;28;20269;-74
2023/07/18 04:09:43;;;;;;;6.87;3.63;;;;;;;14.48;80.88;101516.25;5018637;28;20210;-74
2023/07/18 04:12:16;;;;;;;4.30;3.83;;;;;;;14.56;81.65;101508.22;5033216;28;20227;-74
2023/07/18 04:15:01;;;;;;;6.63;3.87;;;;;;;14.61;80.64;101501.88;5033174;28;20266;-73
2023/07/18 04:17:53;;;;;;;6.57;3.83;;;;;;;14.65;81.13;101494.81;5027697;28;20554;-73
2023/07/18 04:20:34;;;;;;;4.90;3.60;;;;;;;14.67;80.58;101498.69;5029544;28;20214;-74
2023/07/18 04:23:01;;;;;;;8.37;4.17;;;;;;;14.74;80.67;101501.56;5035151;28;20595;-74
2023/07/18 04:25:32;;;;;;;6.10;4.10;;;;;;;14.81;80.36;101501.03;5019491;28;20227;-74
2023/07/18 04:28:02;;;;;;;5.47;4.03;;;;;;;14.87;80.13;101505.03;5033622;28;20228;-74
2023/07/18 04:30:31;;;;;;;6.97;4.50;;;;;;;14.98;80.60;101506.94;5033269;28;20273;-74
2023/07/18 04:33:14;;;;;;;3.87;3.47;;;;;;;15.06;80.29;101499.94;5018907;28;20200;-73
2023/07/18 04:36:15;;;;;;;6.13;4.23;;;;;;;15.09;79.66;101499.28;5018736;28;20206;-73
2023/07/18 04:38:43;;;;;;;5.20;3.97;;;;;;;15.18;79.94;101499.94;5024494;28;20261;-74
2023/07/18 04:41:10;;;;;;;6.30;3.90;;;;;;;15.21;79.32;101500.03;5036328;28;20285;-74
2023/07/18 04:43:38;;;;;;;5.47;4.00;;;;;;;15.28;79.67;101502.16;5019780;28;21644;-74
2023/07/18 04:46:05;;;;;;;5.97;3.60;;;;;;;15.37;79.70;101503.59;5032636;28;20198;-74
2023/07/18 04:48:32;;;;;;;6.37;3.80;;;;;;;15.43;78.79;101501.50;5018406;28;20209;-74
2023/07/18 04:51:00;;;;;;;6.10;4.03;;;;;;;15.46;78.15;101498.94;5028313;28;20253;-74
2023/07/18 04:53:28;;;;;;;5.67;4.00;;;;;;;15.54;78.36;101508.69;5035846;28;20769;-74
2023/07/18 04:55:56;;;;;;;5.00;4.00;;;;;;;15.60;77.98;101507.34;5034323;28;20196;-74
2023/07/18 04:58:24;;;;;;;6.83;3.50;;;;;;;15.70;78.46;101512.22;5018556;28;20306;-74
2023/07/18 05:00:54;;;;;;;4.90;3.83;;;;;;;15.78;77.99;101515.84;5034144;28;20213;-74
2023/07/18 05:03:21;;;;;;;5.13;3.60;;;;;;;15.83;77.21;101513.72;5013491;28;20207;-74
2023/07/18 05:05:51;;;;;;;7.07;3.80;;;;;;;15.90;77.07;101526.47;5032065;28;20547;-74
2023/07/18 05:08:18;;;;;;;7.23;3.70;;;;;;;15.98;77.29;101523.66;5029833;28;20567;-74
2023/07/18 05:10:45;;;;;;;4.87;3.40;;;;;;;16.06;77.15;101529.97;5035616;28;20222;-74
2023/07/18 05:13:13;;;;;;;4.83;3.23;;;;;;;16.17;77.26;101525.69;5018059;28;20206;-74
2023/07/18 05:15:42;;;;;;;3.63;2.90;;;;;;;16.24;76.77;101523.25;5031766;28;20227;-74
2023/07/18 05:18:12;;;;;;;4.00;3.00;;;;;;;16.32;76.70;101515.09;5030632;28;20188;-74
2023/07/18 05:20:39;;;;;;;3.87;3.00;;;;;;;16.41;76.37;101518.38;5027690;28;20210;-74
2023/07/18 05:23:06;;;;;;;7.37;2.83;;;;;;;16.44;75.43;101512.38;5029906;28;20313;-74
2023/07/18 05:25:33;;;;;;;4.87;2.60;;;;;;;16.49;74.60;101512.13;5029444;28;20278;-74
2023/07/18 05:28:01;;;;;;;4.70;2.80;;;;;;;16.55;75.22;101510.00;5028201;28;20239;-74
2023/07/18 05:30:31;;;;;;;5.50;2.60;;;;;;;16.61;75.14;101517.38;5027601;28;20242;-74
2023/07/18 05:32:57;;;;;;;5.23;3.23;;;;;;;16.65;74.37;101520.94;5038281;28;20234;-74
2023/07/18 05:35:25;;;;;;;4.63;2.30;;;;;;;16.71;74.58;101519.56;5034106;28;20223;-74
2023/07/18 05:37:51;;;;;;;2.83;2.43;;;;;;;16.78;74.11;101524.28;5034409;28;20206;-74
2023/07/18 05:40:18;;;;;;;3.93;2.30;;;;;;;16.78;73.04;101525.09;5030833;28;20693;-74
2023/07/18 05:42:45;;;;;;;3.43;2.40;;;;;;;16.85;73.12;101529.78;5037876;28;20540;-74
2023/07/18 05:45:11;;;;;;;4.77;2.40;;;;;;;16.90;73.61;101535.66;5037054;28;20591;-74
2023/07/18 05:47:38;;;;;;;2.93;2.43;;;;;;;17.00;73.80;101537.81;5034899;28;20768;-73
2023/07/18 05:50:06;;;;;;;4.00;2.80;;;;;;;17.04;72.62;101545.91;5033201;28;20573;-74
2023/07/18 05:52:35;;;;;;;4.10;2.17;;;;;;;17.08;72.57;101530.75;5033691;28;20550;-74
2023/07/18 05:55:02;;;;;;;3.43;2.03;;;;;;;17.14;72.77;101527.47;5034029;28;20577;-74
2023/07/18 05:57:28;;;;;;;2.80;2.20;;;;;;;17.19;72.18;101532.53;5033765;28;20208;-74
2023/07/18 05:59:54;;;;;;;6.53;2.50;;;;;;;17.30;72.64;101535.47;5033520;28;20216;-73
2023/07/18 06:02:21;;;;;;;4.40;1.97;;;;;;;17.37;72.64;101543.63;5031925;28;20199;-74
2023/07/18 06:04:48;;;;;;;2.73;2.07;;;;;;;17.45;71.33;101529.34;5032644;28;20610;-74
2023/07/18 06:07:15;;;;;;;3.97;2.40;;;;;;;17.55;70.77;101528.81;5032638;28;20662;-74
2023/07/18 06:09:43;;;;;;;3.17;2.13;;;;;;;17.66;70.89;101529.81;5036698;28;20653;-74
2023/07/18 06:12:10;;;;;;;3.63;2.10;;;;;;;17.75;70.60;101523.13;5034667;28;20196;-74
2023/07/18 06:14:36;;;;;;;5.47;2.00;;;;;;;17.80;69.02;101520.19;5035936;28;20257;-73
2023/07/18 06:17:03;;;;;;;2.30;2.00;;;;;;;17.86;69.48;101524.13;5032302;28;20195;-74
2023/07/18 06:19:29;;;;;;;6.70;2.40;;;;;;;17.90;68.67;101516.94;5039260;28;20226;-74
2023/07/18 06:21:56;;;;;;;5.27;1.90;;;;;;;17.94;68.83;101525.81;5034648;28;20216;-74
2023/07/18 06:24:24;;;;;;;3.03;1.87;;;;;;;18.00;69.33;101529.75;5020662;28;20336;-74
2023/07/18 06:26:52;;;;;;;2.90;1.80;;;;;;;18.07;68.89;101526.47;5035386;28;20211;-74
2023/07/18 06:29:20;;;;;;;5.73;2.40;;;;;;;18.14;68.43;101531.94;5035027;28;20202;-74
2023/07/18 06:31:47;;;;;;;3.07;2.10;;;;;;;18.19;66.95;101531.66;5017088;28;20218;-74
2023/07/18 06:34:13;;;;;;;3.63;1.97;;;;;;;18.27;67.80;101530.66;5035134;28;20220;-74
2023/07/18 06:36:39;;;;;;;5.40;2.60;;;;;;;18.32;67.96;101531.16;5032514;28;20198;-74
2023/07/18 06:39:06;;;;;;;4.20;1.97;;;;;;;18.37;66.91;101530.88;5034185;28;20222;-74
2023/07/18 06:41:32;;;;;;;3.40;2.00;;;;;;;18.38;65.31;101527.06;5032358;28;20213;-74
2023/07/18 06:44:00;;;;;;;4.60;1.90;;;;;;;18.44;65.43;101525.69;5033428;28;20229;-74
2023/07/18 06:46:27;;;;;;;4.17;2.00;;;;;;;18.53;66.33;101523.53;5034722;28;20278;-74
2023/07/18 06:48:53;;;;;;;4.37;2.20;;;;;;;18.60;67.16;101522.88;5034436;28;20207;-74
2023/07/18 06:51:19;;;;;;;4.53;2.50;;;;;;;18.67;65.65;101528.38;5038091;28;20554;-74
2023/07/18 06:53:46;;;;;;;3.07;2.50;;;;;;;18.72;64.92;101522.69;5034572;28;20771;-74
2023/07/18 06:56:12;;;;;;;5.07;1.90;;;;;;;18.75;64.67;101519.31;5030759;28;20214;-74
2023/07/18 06:58:39;;;;;;;3.70;2.07;;;;;;;18.84;66.36;101530.56;5031063;28;20378;-74
2023/07/18 07:01:06;;;;;;;2.33;2.10;;;;;;;18.90;63.18;101523.78;5032972;28;20273;-74
2023/07/18 07:03:33;;;;;;;3.03;2.30;;;;;;;18.98;64.43;101528.09;5031300;28;20558;-74
2023/07/18 07:05:59;;;;;;;4.43;2.47;;;;;;;19.04;64.74;101524.00;5033575;28;20601;-74
2023/07/18 07:08:25;;;;;;;3.30;2.23;;;;;;;19.14;65.27;101523.41;5032580;28;20281;-75
2023/07/18 07:11:03;;;;;;;4.60;2.20;;;;;;;19.18;63.58;101516.19;5033010;28;20213;-74
2023/07/18 07:13:29;;;;;;;3.53;1.70;;;;;;;19.22;62.98;101523.19;5028709;28;20222;-74
2023/07/18 07:15:55;;;;;;;4.63;1.90;;;;;;;19.30;62.37;101524.81;5037496;28;20209;-74
2023/07/18 07:18:23;;;;;;;5.43;2.40;;;;;;;19.37;61.12;101519.56;5035569;28;20204;-74
2023/07/18 07:20:49;;;;;;;4.10;2.23;;;;;;;19.45;61.12;101521.19;5032043;28;20208;-74
2023/07/18 07:23:16;;;;;;;4.13;2.10;;;;;;;19.50;62.00;101512.84;5031658;28;20203;-74
2023/07/18 07:25:43;;;;;;;4.33;2.10;;;;;;;19.59;60.91;101520.63;5034581;28;20200;-74
2023/07/18 07:28:10;;;;;;;3.53;2.23;;;;;;;19.66;60.73;101518.06;5033689;28;20686;-74
2023/07/18 07:30:36;;;;;;;3.77;1.80;;;;;;;19.70;60.46;101521.53;5034071;28;20250;-74
2023/07/18 07:33:05;;;;;;;3.07;2.00;;;;;;;19.69;60.12;101525.34;5032698;28;20199;-74
2023/07/18 07:35:33;;;;;;;8.60;2.77;;;;;;;19.73;60.32;101528.84;5035971;28;20223;-74
2023/07/18 07:37:59;;;;;;;2.60;2.10;;;;;;;19.73;59.42;101512.78;5034023;28;20206;-74
2023/07/18 07:40:26;;;;;;;3.10;2.00;;;;;;;19.75;59.87;101524.66;5032003;28;20218;-74
2023/07/18 07:42:52;;;;;;;4.70;2.10;;;;;;;19.79;59.02;101522.03;5018212;28;20196;-74
2023/07/18 07:45:20;;;;;;;4.93;2.37;;;;;;;19.90;59.70;101513.00;5032575;28;20224;-74
2023/07/18 07:47:49;;;;;;;4.13;2.20;;;;;;;20.00;58.59;101511.56;5033353;28;20262;-74
2023/07/18 07:50:15;;;;;;;3.17;2.07;;;;;;;20.10;59.44;101505.56;5032023;28;20200;-74
2023/07/18 07:52:45;;;;;;;3.47;1.93;;;;;;;20.15;58.35;101510.59;5037847;28;20200;-75
2023/07/18 07:55:12;;;;;;;4.43;1.93;;;;;;;20.25;57.35;101508.06;5049997;28;20250;-73
2023/07/18 07:57:39;;;;;;;4.33;1.90;;;;;;;20.31;56.56;101508.47;5051328;28;20275;-74
2023/07/18 08:00:07;;;;;;;3.00;1.77;;;;;;;20.38;56.96;101498.59;5049990;28;20227;-74
2023/07/18 08:02:33;;;;;;;4.03;1.80;;;;;;;20.48;57.19;101503.28;5053604;28;20198;-73
2023/07/18 08:04:59;;;;;;;3.77;2.10;;;;;;;20.56;56.40;101501.44;5044982;28;20226;-75
2023/07/18 08:07:26;;;;;;;3.93;2.00;;;;;;;20.57;55.79;101503.75;5047533;28;20183;-74
2023/07/18 08:09:54;;;;;;;4.30;1.73;;;;;;;20.65;56.83;101494.63;5049610;28;20736;-74
2023/07/18 08:12:20;;;;;;;3.40;2.33;;;;;;;20.73;57.71;101501.59;5049552;28;20200;-73
2023/07/18 08:14:48;;;;;;;2.67;1.60;;;;;;;20.78;55.99;101492.41;5033280;28;20235;-75
2023/07/18 08:17:14;;;;;;;3.67;1.90;;;;;;;20.82;56.64;101491.31;5034071;28;20204;-74
2023/07/18 08:19:41;;;;;;;2.23;1.57;;;;;;;20.90;56.12;101497.53;5032639;28;20219;-75
2023/07/18 08:22:08;;;;;;;3.20;1.63;;;;;;;20.94;54.41;101490.25;5029905;28;20207;-75
2023/07/18 08:24:36;;;;;;;2.17;1.37;;;;;;;21.02;54.71;101499.94;5031126;28;20266;-75
2023/07/18 08:27:04;;;;;;;2.30;1.73;;;;;;;21.11;55.98;101498.44;5030428;28;20211;-75
2023/07/18 08:29:30;;;;;;;4.27;1.90;;;;;;;21.19;55.89;101493.91;5032469;28;20207;-74
2023/07/18 08:31:58;;;;;;;3.93;1.70;;;;;;;21.28;54.58;101497.03;5028967;28;20208;-74
2023/07/18 08:34:24;;;;;;;3.20;1.80;;;;;;;21.34;53.90;101482.88;5030127;28;20245;-74
2023/07/18 08:36:51;;;;;;;3.87;1.80;;;;;;;21.42;54.90;101489.06;5032471;28;20199;-75
2023/07/18 08:39:17;;;;;;;2.80;1.60;;;;;;;21.48;52.01;101482.16;5029548;28;20236;-74
2023/07/18 08:41:45;;;;;;;3.13;1.43;;;;;;;21.55;52.92;101492.94;5028545;28;20222;-74
2023/07/18 08:44:16;;;;;;;9.23;1.70;;;;;;;21.61;52.70;101480.69;5030909;28;20224;-75
2023/07/18 08:46:45;;;;;;;4.70;1.50;;;;;;;21.68;50.27;101478.06;5030972;28;20726;-75
2023/07/18 08:49:13;;;;;;;2.90;1.70;;;;;;;21.73;54.54;101475.03;5029437;28;20470;-74
2023/07/18 08:51:40;;;;;;;2.43;1.70;;;;;;;21.80;52.08;101475.81;5030817;28;20592;-74
2023/07/18 08:54:07;;;;;;;3.77;1.40;;;;;;;21.86;51.51;101466.22;5028208;28;20849;-74
2023/07/18 08:56:33;;;;;;;2.53;1.53;;;;;;;21.91;52.63;101463.16;5031927;28;20206;-75
2023/07/18 08:59:01;;;;;;;2.27;1.50;;;;;;;21.99;50.98;101461.28;5027534;28;20208;-74
2023/07/18 09:01:28;;;;;;;2.57;1.57;;;;;;;22.08;49.40;101459.75;5028879;28;20650;-75
2023/07/18 09:03:55;;;;;;;3.37;1.63;;;;;;;22.15;50.73;101456.31;5027735;28;20219;-74
2023/07/18 09:06:23;;;;;;;2.57;1.50;;;;;;;22.24;49.44;101457.47;5031603;28;20207;-74
2023/07/18 09:08:50;;;;;;;3.37;1.60;;;;;;;22.30;48.40;101455.16;5031926;28;20564;-73
2023/07/18 09:11:19;;;;;;;2.37;1.60;;;;;;;22.38;48.49;101457.47;5032027;28;20231;-74
2023/07/18 09:13:46;;;;;;;3.07;1.53;;;;;;;22.44;50.41;101444.44;5032071;28;20223;-73
2023/07/18 09:16:14;;;;;;;2.00;1.53;;;;;;;22.52;48.07;101451.38;5016846;28;20211;-74
2023/07/18 09:18:45;;;;;;;1.87;1.47;;;;;;;22.58;47.00;101447.13;5032423;28;20208;-73
2023/07/18 09:21:12;;;;;;;2.33;1.50;;;;;;;22.63;50.25;101439.44;5031735;28;20224;-74
2023/07/18 09:23:43;;;;;;;3.20;1.73;;;;;;;22.70;46.37;101436.72;5029382;28;20233;-73
2023/07/18 09:26:10;;;;;;;4.43;1.60;;;;;;;22.74;45.99;101431.34;5028723;28;20219;-74
2023/07/18 09:28:37;;;;;;;5.07;1.40;;;;;;;22.79;46.63;101425.56;5031438;28;20199;-74
2023/07/18 09:31:04;;;;;;;2.40;1.60;;;;;;;22.88;48.32;101425.94;5017547;28;21188;-74
2023/07/18 09:33:30;;;;;;;2.73;1.60;;;;;;;22.96;46.08;101430.94;5031059;28;20204;-73
2023/07/18 09:35:58;;;;;;;3.73;1.50;;;;;;;23.07;46.18;101422.84;5031748;28;20225;-73
2023/07/18 09:38:26;;;;;;;3.80;1.90;;;;;;;23.18;48.70;101420.91;5032211;28;20214;-73
2023/07/18 09:40:53;;;;;;;3.60;1.70;;;;;;;23.28;49.14;101412.00;5031730;28;20581;-74
2023/07/18 09:43:22;;;;;;;2.90;1.60;;;;;;;23.44;46.67;101421.16;5029894;28;20212;-74
2023/07/18 09:45:52;;;;;;;2.07;1.27;;;;;;;23.48;42.99;101412.31;5030298;28;20212;-74
2023/07/18 09:48:18;;;;;;;2.57;1.80;;;;;;;23.62;50.18;101410.31;5030040;28;20199;-74
2023/07/18 09:50:47;;;;;;;2.73;1.50;;;;;;;23.75;43.95;101411.41;5029061;28;20522;-73
2023/07/18 09:53:18;;;;;;;1.97;1.57;;;;;;;23.79;44.10;101409.47;5029276;28;20291;-73
2023/07/18 09:55:45;;;;;;;1.90;1.40;;;;;;;23.90;47.14;101401.31;5028263;28;20261;-74
2023/07/18 09:58:12;;;;;;;2.30;1.30;;;;;;;23.92;41.66;101393.59;5029781;28;20203;-74
2023/07/18 10:00:41;;;;;;;2.07;1.63;;;;;;;23.98;42.36;101406.25;5030819;28;20231;-73
2023/07/18 10:03:08;;;;;;;1.97;1.37;;;;;;;24.06;42.31;101404.28;5030000;28;20203;-74
2023/07/18 10:05:35;;;;;;;2.63;1.60;;;;;;;24.15;45.96;101404.63;5027828;28;20235;-74
2023/07/18 10:08:04;;;;;;;1.60;1.10;;;;;;;24.25;44.68;101401.06;5028532;28;20199;-74
2023/07/18 10:10:34;;;;;;;2.00;1.30;;;;;;;24.34;47.57;101401.38;5027163;28;20207;-75
2023/07/18 10:13:01;;;;;;;1.47;1.20;;;;;;;24.40;40.26;101392.44;5018726;28;20249;-74
2023/07/18 10:15:28;;;;;;;1.40;1.30;;;;;;;24.50;40.84;101393.53;5018763;28;20220;-74
2023/07/18 10:17:55;;;;;;;2.80;1.43;;;;;;;24.53;45.90;101378.03;5021241;28;20214;-75
2023/07/18 10:20:24;;;;;;;6.30;1.90;;;;;;;24.62;40.95;101371.44;5018543;28;20239;-74
2023/07/18 10:22:57;;;;;;;3.70;1.50;;;;;;;24.69;40.65;101377.56;5019245;28;20212;-75
2023/07/18 10:25:25;;;;;;;2.30;1.40;;;;;;;24.78;39.84;101380.56;5003161;28;20227;-74
2023/07/18 10:27:53;;;;;;;2.93;1.20;;;;;;;24.86;39.71;101379.28;5018444;28;20219;-75
2023/07/18 10:30:21;;;;;;;2.87;1.30;;;;;;;24.94;43.49;101380.75;5016693;28;20208;-74
2023/07/18 10:32:52;;;;;;;3.50;1.50;;;;;;;24.92;41.72;101379.63;5018607;28;20206;-74
2023/07/18 10:35:20;;;;;;;2.47;1.23;;;;;;;24.93;41.97;101371.13;5017387;28;20223;-74
2023/07/18 10:37:51;;;;;;;2.83;1.40;;;;;;;24.92;39.63;101380.38;5020115;28;20211;-75
2023/07/18 10:40:35;;;;;;;2.13;1.30;;;;;;;24.95;41.71;101371.47;5025161;28;20208;-75
2023/07/18 10:43:05;;;;;;;1.63;1.48;;;;;;;24.99;40.55;101368.72;5025072;28;20685;-74
2023/07/18 10:45:37;;;;;;;1.30;1.20;;;;;;;24.99;38.40;101358.69;5023029;28;20231;-74
2023/07/18 10:48:10;;;;;;;2.15;1.50;;;;;;;25.05;40.98;101357.06;5024374;28;20207;-75
2023/07/18 10:50:37;;;;;;;3.80;1.30;;;;;;;25.07;41.94;101356.69;5023212;28;20282;-74
2023/07/18 10:53:03;;;;;;;1.50;1.20;;;;;;;25.01;37.67;101345.53;5025491;28;20204;-74
2023/07/18 10:55:29;;;;;;;1.48;1.00;;;;;;;25.05;41.12;101337.38;5024494;28;20227;-74
2023/07/18 10:57:56;;;;;;;3.72;1.73;;;;;;;25.07;39.96;101335.81;5023506;28;20234;-75
2023/07/18 11:00:26;;;;;;;2.13;1.30;;;;;;;25.13;43.63;101323.38;5025186;28;20208;-75
2023/07/18 11:02:52;;;;;;;4.28;1.60;;;;;;;25.16;39.44;101321.78;5023924;28;20678;-75
2023/07/18 11:05:18;;;;;;;2.20;1.40;;;;;;;25.15;39.39;101328.38;5023708;28;20239;-75
2023/07/18 11:07:47;;;;;;;2.20;1.53;;;;;;;25.19;43.83;101308.25;5023429;28;20210;-74
2023/07/18 11:10:14;;;;;;;2.38;1.30;;;;;;;25.23;39.27;101308.19;5022193;28;20199;-75
2023/07/18 11:12:41;;;;;;;1.45;1.20;;;;;;;25.29;38.80;101306.59;5023175;28;20231;-75
2023/07/18 11:15:09;;;;;;;2.63;1.20;;;;;;;25.22;37.88;101312.84;5022043;28;20307;-75
2023/07/18 11:17:38;;;;;;;2.28;1.48;;;;;;;25.19;44.06;101292.03;5024105;28;20998;-74
2023/07/18 11:20:06;;;;;;;1.88;1.35;;;;;;;25.23;40.60;101297.38;5024036;28;20562;-74
2023/07/18 11:22:33;;;;;;;3.17;1.30;;;;;;;25.25;43.36;101297.72;5022923;28;20796;-75
2023/07/18 11:25:00;;;;;;;1.42;1.17;;;;;;;25.23;39.34;101294.69;5021913;28;21482;-75
2023/07/18 11:27:27;;;;;;;2.45;1.33;;;;;;;25.29;42.08;101290.38;5022976;28;20840;-74
2023/07/18 11:29:57;;;;;;;3.55;1.42;;;;;;;25.38;39.00;101283.28;5026012;28;20726;-74
2023/07/18 11:32:32;;;;;;;2.70;1.55;;;;;;;25.44;37.71;101280.88;5009577;28;20199;-75
2023/07/18 11:35:00;;;;;;;3.97;1.70;;;;;;;25.48;38.23;101278.91;5022284;28;20241;-75
2023/07/18 11:37:27;;;;;;;3.00;1.55;;;;;;;25.50;39.95;101281.94;5021976;28;20573;-74
2023/07/18 11:39:55;;;;;;;2.88;1.40;;;;;;;25.57;38.56;101271.78;5022800;28;20208;-75
2023/07/18 11:42:21;;;;;;;2.75;1.23;;;;;;;25.65;38.83;101275.16;5020429;28;20215;-75
2023/07/18 11:44:48;;;;;;;2.13;1.50;;;;;;;25.75;39.08;101268.81;5022745;28;20219;-75
2023/07/18 11:47:16;;;;;;;1.88;1.40;;;;;;;25.84;41.69;101266.34;5022363;28;20230;-75
2023/07/18 11:49:44;;;;;;;3.17;1.27;;;;;;;25.87;36.99;101260.88;5020675;28;20204;-75
2023/07/18 11:52:12;;;;;;;3.88;1.60;;;;;;;25.97;41.19;101261.91;5020695;28;20204;-75
2023/07/18 11:54:39;;;;;;;1.30;1.15;;;;;;;26.04;37.02;101257.13;5019422;28;20224;-75
2023/07/18 11:57:06;;;;;;;2.67;1.40;;;;;;;26.10;37.64;101263.59;5021412;28;20207;-75